sensor_id;sensor_type;location;lat;lon;timestamp;temperature;humidity
16128;DHT22;8168;49.036;7.690;2024-03-29T00:02:05;9.60;99.90
16128;DHT22;8168;49.036;7.690;2024-03-29T00:04:36;9.60;99.90
16128;DHT22;8168;49.036;7.690;2024-03-29T00:07:07;9.70;99.90
16128;DHT22;8168;49.036;7.690;2024-03-29T00:09:39;9.70;99.90
16128;DHT22;8168;49.036;7.690;2024-03-29T00:12:10;9.60;99.90
16128;DHT22;8168;49.036;7.690;2024-03-29T00:14:41;9.50;99.90
16128;DHT22;8168;49.036;7.690;2024-03-29T00:17:11;9.50;99.90
16128;DHT22;8168;49.036;7.690;2024-03-29T00:19:42;9.40;99.90
16128;DHT22;8168;49.036;7.690;2024-03-29T00:22:12;9.40;99.90
16128;DHT22;8168;49.036;7.690;2024-03-29T00:24:43;9.40;99.90
16128;DHT22;8168;49.036;7.690;2024-03-29T00:27:14;9.30;99.90
16128;DHT22;8168;49.036;7.690;2024-03-29T00:29:44;9.30;99.90
16128;DHT22;8168;49.036;7.690;2024-03-29T00:32:17;9.20;99.90
16128;DHT22;8168;49.036;7.690;2024-03-29T00:34:51;9.20;99.90
16128;DHT22;8168;49.036;7.690;2024-03-29T00:37:22;9.30;99.90
16128;DHT22;8168;49.036;7.690;2024-03-29T00:39:53;9.30;99.90
16128;DHT22;8168;49.036;7.690;2024-03-29T00:42:24;9.30;99.90
16128;DHT22;8168;49.036;7.690;2024-03-29T00:44:55;9.20;99.90
16128;DHT22;8168;49.036;7.690;2024-03-29T00:47:25;9.30;99.90
16128;DHT22;8168;49.036;7.690;2024-03-29T00:49:56;9.20;99.90
16128;DHT22;8168;49.036;7.690;2024-03-29T00:52:27;9.30;99.90
16128;DHT22;8168;49.036;7.690;2024-03-29T00:54:57;9.20;99.90
16128;DHT22;8168;49.036;7.690;2024-03-29T00:57:28;9.20;99.90
16128;DHT22;8168;49.036;7.690;2024-03-29T00:59:58;9.20;99.90
16128;DHT22;8168;49.036;7.690;2024-03-29T01:02:29;9.20;99.90
16128;DHT22;8168;49.036;7.690;2024-03-29T01:05:00;9.20;99.90
16128;DHT22;8168;49.036;7.690;2024-03-29T01:07:30;9.20;99.90
16128;DHT22;8168;49.036;7.690;2024-03-29T01:10:01;10.00;99.90
16128;DHT22;8168;49.036;7.690;2024-03-29T01:12:31;9.20;99.90
16128;DHT22;8168;49.036;7.690;2024-03-29T01:15:02;9.10;99.90
16128;DHT22;8168;49.036;7.690;2024-03-29T01:17:33;9.10;99.90
16128;DHT22;8168;49.036;7.690;2024-03-29T01:20:04;9.10;99.90
16128;DHT22;8168;49.036;7.690;2024-03-29T01:22:35;9.00;99.90
16128;DHT22;8168;49.036;7.690;2024-03-29T01:25:05;9.00;99.90
16128;DHT22;8168;49.036;7.690;2024-03-29T01:27:38;9.00;99.90
16128;DHT22;8168;49.036;7.690;2024-03-29T01:30:09;8.90;99.90
16128;DHT22;8168;49.036;7.690;2024-03-29T01:32:40;8.90;99.90
16128;DHT22;8168;49.036;7.690;2024-03-29T01:35:10;8.90;99.90
16128;DHT22;8168;49.036;7.690;2024-03-29T01:37:41;8.90;99.90
16128;DHT22;8168;49.036;7.690;2024-03-29T01:40:12;8.90;99.90
16128;DHT22;8168;49.036;7.690;2024-03-29T01:42:42;8.90;99.90
16128;DHT22;8168;49.036;7.690;2024-03-29T01:45:13;8.90;99.90
16128;DHT22;8168;49.036;7.690;2024-03-29T01:47:44;8.90;99.90
16128;DHT22;8168;49.036;7.690;2024-03-29T01:50:15;9.10;99.90
16128;DHT22;8168;49.036;7.690;2024-03-29T01:52:45;9.20;99.90
16128;DHT22;8168;49.036;7.690;2024-03-29T01:55:16;9.30;99.90
16128;DHT22;8168;49.036;7.690;2024-03-29T01:57:47;9.40;99.90
16128;DHT22;8168;49.036;7.690;2024-03-29T02:00:19;8.20;99.90
16128;DHT22;8168;49.036;7.690;2024-03-29T02:02:50;9.60;99.90
16128;DHT22;8168;49.036;7.690;2024-03-29T02:05:21;9.70;99.90
16128;DHT22;8168;49.036;7.690;2024-03-29T02:07:52;9.70;99.90
16128;DHT22;8168;49.036;7.690;2024-03-29T02:10:24;9.70;99.90
16128;DHT22;8168;49.036;7.690;2024-03-29T02:12:55;9.80;99.90
16128;DHT22;8168;49.036;7.690;2024-03-29T02:15:27;9.80;99.90
16128;DHT22;8168;49.036;7.690;2024-03-29T02:17:58;9.70;99.90
16128;DHT22;8168;49.036;7.690;2024-03-29T02:20:30;9.80;99.90
16128;DHT22;8168;49.036;7.690;2024-03-29T02:23:19;9.80;99.90
16128;DHT22;8168;49.036;7.690;2024-03-29T02:25:50;9.90;99.90
16128;DHT22;8168;49.036;7.690;2024-03-29T02:28:22;10.10;99.90
16128;DHT22;8168;49.036;7.690;2024-03-29T02:30:53;10.20;99.90
16128;DHT22;8168;49.036;7.690;2024-03-29T02:33:23;10.20;99.90
16128;DHT22;8168;49.036;7.690;2024-03-29T02:35:54;10.20;99.90
16128;DHT22;8168;49.036;7.690;2024-03-29T02:38:25;10.30;99.90
16128;DHT22;8168;49.036;7.690;2024-03-29T02:40:55;10.30;99.90
16128;DHT22;8168;49.036;7.690;2024-03-29T02:43:26;10.80;99.90
16128;DHT22;8168;49.036;7.690;2024-03-29T02:45:56;10.20;99.90
16128;DHT22;8168;49.036;7.690;2024-03-29T02:48:27;10.20;99.90
16128;DHT22;8168;49.036;7.690;2024-03-29T02:50:58;10.20;99.90
16128;DHT22;8168;49.036;7.690;2024-03-29T02:53:28;10.10;99.90
16128;DHT22;8168;49.036;7.690;2024-03-29T02:55:59;10.10;99.90
16128;DHT22;8168;49.036;7.690;2024-03-29T02:58:29;10.00;99.90
16128;DHT22;8168;49.036;7.690;2024-03-29T03:01:07;9.90;99.90
16128;DHT22;8168;49.036;7.690;2024-03-29T03:03:38;9.80;99.90
16128;DHT22;8168;49.036;7.690;2024-03-29T03:06:09;9.80;99.90
16128;DHT22;8168;49.036;7.690;2024-03-29T03:08:39;9.80;99.90
16128;DHT22;8168;49.036;7.690;2024-03-29T03:11:29;9.80;99.90
16128;DHT22;8168;49.036;7.690;2024-03-29T03:13:59;9.70;99.90
16128;DHT22;8168;49.036;7.690;2024-03-29T03:16:30;9.60;99.90
16128;DHT22;8168;49.036;7.690;2024-03-29T03:19:00;9.60;99.90
16128;DHT22;8168;49.036;7.690;2024-03-29T03:21:31;9.50;99.90
16128;DHT22;8168;49.036;7.690;2024-03-29T03:24:02;9.40;99.90
16128;DHT22;8168;49.036;7.690;2024-03-29T03:26:34;9.30;99.90
16128;DHT22;8168;49.036;7.690;2024-03-29T03:29:05;9.30;99.90
16128;DHT22;8168;49.036;7.690;2024-03-29T03:31:38;9.30;99.90
16128;DHT22;8168;49.036;7.690;2024-03-29T03:34:08;9.20;99.90
16128;DHT22;8168;49.036;7.690;2024-03-29T03:36:39;9.20;99.90
16128;DHT22;8168;49.036;7.690;2024-03-29T03:39:10;9.20;99.90
16128;DHT22;8168;49.036;7.690;2024-03-29T03:41:41;9.10;99.90
16128;DHT22;8168;49.036;7.690;2024-03-29T03:44:11;9.10;99.90
16128;DHT22;8168;49.036;7.690;2024-03-29T03:46:42;9.10;99.90
16128;DHT22;8168;49.036;7.690;2024-03-29T03:49:12;9.00;99.90
16128;DHT22;8168;49.036;7.690;2024-03-29T03:51:43;8.90;99.90
16128;DHT22;8168;49.036;7.690;2024-03-29T03:54:14;9.80;99.90
16128;DHT22;8168;49.036;7.690;2024-03-29T03:56:45;8.90;99.90
16128;DHT22;8168;49.036;7.690;2024-03-29T03:59:15;8.90;99.90
16128;DHT22;8168;49.036;7.690;2024-03-29T04:01:46;9.00;99.90
16128;DHT22;8168;49.036;7.690;2024-03-29T04:04:17;8.90;99.90
16128;DHT22;8168;49.036;7.690;2024-03-29T04:06:48;8.90;99.90
16128;DHT22;8168;49.036;7.690;2024-03-29T04:09:18;8.80;99.90
16128;DHT22;8168;49.036;7.690;2024-03-29T04:11:49;8.80;99.90
16128;DHT22;8168;49.036;7.690;2024-03-29T04:14:20;8.80;99.90
16128;DHT22;8168;49.036;7.690;2024-03-29T04:16:50;8.70;99.90
16128;DHT22;8168;49.036;7.690;2024-03-29T04:19:21;8.70;99.90
16128;DHT22;8168;49.036;7.690;2024-03-29T04:21:52;8.70;99.90
16128;DHT22;8168;49.036;7.690;2024-03-29T04:24:23;8.70;99.90
16128;DHT22;8168;49.036;7.690;2024-03-29T04:26:53;8.70;99.90
16128;DHT22;8168;49.036;7.690;2024-03-29T04:29:24;8.60;99.90
16128;DHT22;8168;49.036;7.690;2024-03-29T04:31:55;8.70;99.90
16128;DHT22;8168;49.036;7.690;2024-03-29T04:34:25;8.70;99.90
16128;DHT22;8168;49.036;7.690;2024-03-29T04:36:56;8.70;99.90
16128;DHT22;8168;49.036;7.690;2024-03-29T04:39:27;8.70;99.90
16128;DHT22;8168;49.036;7.690;2024-03-29T04:41:58;8.70;99.90
16128;DHT22;8168;49.036;7.690;2024-03-29T04:44:29;8.70;99.90
16128;DHT22;8168;49.036;7.690;2024-03-29T04:46:59;8.60;99.90
16128;DHT22;8168;49.036;7.690;2024-03-29T04:49:30;8.60;99.90
16128;DHT22;8168;49.036;7.690;2024-03-29T04:52:09;8.60;99.90
16128;DHT22;8168;49.036;7.690;2024-03-29T04:54:40;8.60;99.90
16128;DHT22;8168;49.036;7.690;2024-03-29T04:57:11;8.50;99.90
16128;DHT22;8168;49.036;7.690;2024-03-29T04:59:43;8.50;99.90
16128;DHT22;8168;49.036;7.690;2024-03-29T05:02:14;8.40;99.90
16128;DHT22;8168;49.036;7.690;2024-03-29T05:04:44;8.40;99.90
16128;DHT22;8168;49.036;7.690;2024-03-29T05:07:15;8.50;99.90
16128;DHT22;8168;49.036;7.690;2024-03-29T05:09:46;8.50;99.90
16128;DHT22;8168;49.036;7.690;2024-03-29T05:12:16;8.40;99.90
16128;DHT22;8168;49.036;7.690;2024-03-29T05:14:47;8.50;99.90
16128;DHT22;8168;49.036;7.690;2024-03-29T05:17:19;8.50;99.90
16128;DHT22;8168;49.036;7.690;2024-03-29T05:19:55;8.50;99.90
16128;DHT22;8168;49.036;7.690;2024-03-29T05:22:26;8.50;99.90
16128;DHT22;8168;49.036;7.690;2024-03-29T05:24:57;8.50;99.90
16128;DHT22;8168;49.036;7.690;2024-03-29T05:27:27;8.60;99.90
16128;DHT22;8168;49.036;7.690;2024-03-29T05:29:58;8.50;99.90
16128;DHT22;8168;49.036;7.690;2024-03-29T05:32:30;8.50;99.90
16128;DHT22;8168;49.036;7.690;2024-03-29T05:35:01;8.50;99.90
16128;DHT22;8168;49.036;7.690;2024-03-29T05:37:31;8.40;99.90
16128;DHT22;8168;49.036;7.690;2024-03-29T05:40:03;8.40;99.90
16128;DHT22;8168;49.036;7.690;2024-03-29T05:42:37;8.50;99.90
16128;DHT22;8168;49.036;7.690;2024-03-29T05:47:57;8.50;99.90
16128;DHT22;8168;49.036;7.690;2024-03-29T05:50:28;8.50;99.90
16128;DHT22;8168;49.036;7.690;2024-03-29T05:52:58;8.50;99.90
16128;DHT22;8168;49.036;7.690;2024-03-29T05:55:31;8.50;99.90
16128;DHT22;8168;49.036;7.690;2024-03-29T05:58:02;8.40;99.90
16128;DHT22;8168;49.036;7.690;2024-03-29T06:00:33;8.70;99.90
16128;DHT22;8168;49.036;7.690;2024-03-29T06:03:05;8.40;99.90
16128;DHT22;8168;49.036;7.690;2024-03-29T06:05:36;8.40;99.90
16128;DHT22;8168;49.036;7.690;2024-03-29T06:08:07;8.40;99.90
16128;DHT22;8168;49.036;7.690;2024-03-29T06:10:38;8.40;99.90
16128;DHT22;8168;49.036;7.690;2024-03-29T06:13:09;8.40;99.90
16128;DHT22;8168;49.036;7.690;2024-03-29T06:15:48;8.40;99.90
16128;DHT22;8168;49.036;7.690;2024-03-29T06:18:37;8.40;99.90
16128;DHT22;8168;49.036;7.690;2024-03-29T06:21:07;8.40;99.90
16128;DHT22;8168;49.036;7.690;2024-03-29T06:23:38;8.40;99.90
16128;DHT22;8168;49.036;7.690;2024-03-29T06:26:08;8.40;99.90
16128;DHT22;8168;49.036;7.690;2024-03-29T06:28:39;8.40;99.90
16128;DHT22;8168;49.036;7.690;2024-03-29T06:31:10;8.40;99.90
16128;DHT22;8168;49.036;7.690;2024-03-29T06:33:40;8.40;99.90
16128;DHT22;8168;49.036;7.690;2024-03-29T06:36:11;8.40;99.90
16128;DHT22;8168;49.036;7.690;2024-03-29T06:38:41;8.40;99.90
16128;DHT22;8168;49.036;7.690;2024-03-29T06:41:12;8.30;99.90
16128;DHT22;8168;49.036;7.690;2024-03-29T06:43:43;8.30;99.90
16128;DHT22;8168;49.036;7.690;2024-03-29T06:46:16;8.40;99.90
16128;DHT22;8168;49.036;7.690;2024-03-29T06:48:47;8.40;99.90
16128;DHT22;8168;49.036;7.690;2024-03-29T06:51:19;8.50;99.90
16128;DHT22;8168;49.036;7.690;2024-03-29T06:53:50;8.40;99.90
16128;DHT22;8168;49.036;7.690;2024-03-29T06:56:22;8.40;99.90
16128;DHT22;8168;49.036;7.690;2024-03-29T06:58:52;8.40;99.90
16128;DHT22;8168;49.036;7.690;2024-03-29T07:01:23;8.30;99.90
16128;DHT22;8168;49.036;7.690;2024-03-29T07:03:54;8.40;99.90
16128;DHT22;8168;49.036;7.690;2024-03-29T07:06:24;8.40;99.90
16128;DHT22;8168;49.036;7.690;2024-03-29T07:08:56;9.90;99.90
16128;DHT22;8168;49.036;7.690;2024-03-29T07:11:27;8.40;99.90
16128;DHT22;8168;49.036;7.690;2024-03-29T07:13:57;8.50;99.90
16128;DHT22;8168;49.036;7.690;2024-03-29T07:16:28;8.50;99.90
16128;DHT22;8168;49.036;7.690;2024-03-29T07:18:58;8.50;99.90
16128;DHT22;8168;49.036;7.690;2024-03-29T07:21:30;8.50;99.90
16128;DHT22;8168;49.036;7.690;2024-03-29T07:24:00;8.50;99.90
16128;DHT22;8168;49.036;7.690;2024-03-29T07:26:31;8.60;99.90
16128;DHT22;8168;49.036;7.690;2024-03-29T07:29:02;8.70;99.90
16128;DHT22;8168;49.036;7.690;2024-03-29T07:31:35;8.60;99.90
16128;DHT22;8168;49.036;7.690;2024-03-29T07:34:06;8.70;99.90
16128;DHT22;8168;49.036;7.690;2024-03-29T07:36:36;8.70;99.90
16128;DHT22;8168;49.036;7.690;2024-03-29T07:39:07;8.70;99.90
16128;DHT22;8168;49.036;7.690;2024-03-29T07:41:38;8.70;99.90
16128;DHT22;8168;49.036;7.690;2024-03-29T07:44:09;8.70;99.90
16128;DHT22;8168;49.036;7.690;2024-03-29T07:46:39;8.80;99.90
16128;DHT22;8168;49.036;7.690;2024-03-29T07:49:10;8.80;99.90
16128;DHT22;8168;49.036;7.690;2024-03-29T07:51:41;8.90;99.90
16128;DHT22;8168;49.036;7.690;2024-03-29T07:54:11;8.90;99.90
16128;DHT22;8168;49.036;7.690;2024-03-29T07:56:42;9.00;99.90
16128;DHT22;8168;49.036;7.690;2024-03-29T07:59:13;9.00;99.90
16128;DHT22;8168;49.036;7.690;2024-03-29T08:01:43;9.00;99.90
16128;DHT22;8168;49.036;7.690;2024-03-29T08:04:14;9.10;99.90
16128;DHT22;8168;49.036;7.690;2024-03-29T08:06:45;9.10;99.90
16128;DHT22;8168;49.036;7.690;2024-03-29T08:09:15;9.10;99.90
16128;DHT22;8168;49.036;7.690;2024-03-29T08:11:46;9.10;99.90
16128;DHT22;8168;49.036;7.690;2024-03-29T08:14:16;9.10;99.90
16128;DHT22;8168;49.036;7.690;2024-03-29T08:16:47;9.10;99.90
16128;DHT22;8168;49.036;7.690;2024-03-29T08:19:18;9.10;99.90
16128;DHT22;8168;49.036;7.690;2024-03-29T08:21:48;9.20;99.90
16128;DHT22;8168;49.036;7.690;2024-03-29T08:24:19;9.20;99.90
16128;DHT22;8168;49.036;7.690;2024-03-29T08:26:50;9.20;99.90
16128;DHT22;8168;49.036;7.690;2024-03-29T08:29:20;9.20;99.90
16128;DHT22;8168;49.036;7.690;2024-03-29T08:31:51;9.20;99.90
16128;DHT22;8168;49.036;7.690;2024-03-29T08:34:22;9.20;99.90
16128;DHT22;8168;49.036;7.690;2024-03-29T08:36:53;9.10;99.90
16128;DHT22;8168;49.036;7.690;2024-03-29T08:39:23;9.10;99.90
16128;DHT22;8168;49.036;7.690;2024-03-29T08:41:54;9.10;99.90
16128;DHT22;8168;49.036;7.690;2024-03-29T08:44:25;9.10;99.90
16128;DHT22;8168;49.036;7.690;2024-03-29T08:46:55;9.00;99.90
16128;DHT22;8168;49.036;7.690;2024-03-29T08:49:27;9.00;99.90
16128;DHT22;8168;49.036;7.690;2024-03-29T08:51:58;9.00;99.90
16128;DHT22;8168;49.036;7.690;2024-03-29T08:54:31;9.00;99.90
16128;DHT22;8168;49.036;7.690;2024-03-29T08:57:02;9.10;99.90
16128;DHT22;8168;49.036;7.690;2024-03-29T08:59:33;9.10;99.90
16128;DHT22;8168;49.036;7.690;2024-03-29T09:02:05;9.10;99.90
16128;DHT22;8168;49.036;7.690;2024-03-29T09:04:38;9.10;99.90
16128;DHT22;8168;49.036;7.690;2024-03-29T09:07:09;9.20;99.90
16128;DHT22;8168;49.036;7.690;2024-03-29T09:09:39;9.10;99.90
16128;DHT22;8168;49.036;7.690;2024-03-29T09:12:12;9.10;99.90
16128;DHT22;8168;49.036;7.690;2024-03-29T09:14:42;9.20;99.90
16128;DHT22;8168;49.036;7.690;2024-03-29T09:17:13;9.10;99.90
16128;DHT22;8168;49.036;7.690;2024-03-29T09:19:44;9.10;99.90
16128;DHT22;8168;49.036;7.690;2024-03-29T09:22:14;9.00;99.90
16128;DHT22;8168;49.036;7.690;2024-03-29T09:24:45;9.10;99.90
16128;DHT22;8168;49.036;7.690;2024-03-29T09:27:16;9.10;99.90
16128;DHT22;8168;49.036;7.690;2024-03-29T09:29:50;9.10;99.90
16128;DHT22;8168;49.036;7.690;2024-03-29T09:32:20;9.10;99.90
16128;DHT22;8168;49.036;7.690;2024-03-29T09:34:55;9.10;99.90
16128;DHT22;8168;49.036;7.690;2024-03-29T09:37:27;9.10;99.90
16128;DHT22;8168;49.036;7.690;2024-03-29T09:39:57;9.10;99.90
16128;DHT22;8168;49.036;7.690;2024-03-29T09:42:29;9.00;99.90
16128;DHT22;8168;49.036;7.690;2024-03-29T09:45:02;8.90;99.90
16128;DHT22;8168;49.036;7.690;2024-03-29T09:47:36;8.90;99.90
16128;DHT22;8168;49.036;7.690;2024-03-29T09:50:08;8.90;99.90
16128;DHT22;8168;49.036;7.690;2024-03-29T09:52:39;9.00;99.90
16128;DHT22;8168;49.036;7.690;2024-03-29T09:55:11;9.00;99.90
16128;DHT22;8168;49.036;7.690;2024-03-29T09:57:41;9.10;99.90
16128;DHT22;8168;49.036;7.690;2024-03-29T10:00:12;9.10;99.90
16128;DHT22;8168;49.036;7.690;2024-03-29T10:02:43;9.20;99.90
16128;DHT22;8168;49.036;7.690;2024-03-29T10:05:14;9.30;99.90
16128;DHT22;8168;49.036;7.690;2024-03-29T10:07:46;9.30;99.90
16128;DHT22;8168;49.036;7.690;2024-03-29T10:10:17;9.40;99.90
16128;DHT22;8168;49.036;7.690;2024-03-29T10:12:48;9.40;99.90
16128;DHT22;8168;49.036;7.690;2024-03-29T10:15:19;9.50;99.90
16128;DHT22;8168;49.036;7.690;2024-03-29T10:17:51;9.50;99.90
16128;DHT22;8168;49.036;7.690;2024-03-29T10:20:23;9.60;99.90
16128;DHT22;8168;49.036;7.690;2024-03-29T10:22:55;9.60;99.90
16128;DHT22;8168;49.036;7.690;2024-03-29T10:25:26;9.70;99.90
16128;DHT22;8168;49.036;7.690;2024-03-29T10:27:56;9.70;99.90
16128;DHT22;8168;49.036;7.690;2024-03-29T10:30:27;9.80;99.90
16128;DHT22;8168;49.036;7.690;2024-03-29T10:32:58;9.80;99.90
16128;DHT22;8168;49.036;7.690;2024-03-29T10:35:29;9.80;99.90
16128;DHT22;8168;49.036;7.690;2024-03-29T10:38:02;9.80;99.90
16128;DHT22;8168;49.036;7.690;2024-03-29T10:40:33;9.90;99.90
16128;DHT22;8168;49.036;7.690;2024-03-29T10:43:04;9.90;99.90
16128;DHT22;8168;49.036;7.690;2024-03-29T10:45:40;9.90;99.90
16128;DHT22;8168;49.036;7.690;2024-03-29T10:48:10;9.90;99.90
16128;DHT22;8168;49.036;7.690;2024-03-29T10:50:42;10.00;99.90
16128;DHT22;8168;49.036;7.690;2024-03-29T10:53:13;10.00;99.90
16128;DHT22;8168;49.036;7.690;2024-03-29T10:55:46;10.00;99.90
16128;DHT22;8168;49.036;7.690;2024-03-29T10:58:17;10.00;99.90
16128;DHT22;8168;49.036;7.690;2024-03-29T11:00:56;10.00;99.90
16128;DHT22;8168;49.036;7.690;2024-03-29T11:03:49;10.10;99.90
16128;DHT22;8168;49.036;7.690;2024-03-29T11:06:25;13.30;99.90
16128;DHT22;8168;49.036;7.690;2024-03-29T11:08:59;10.10;99.90
16128;DHT22;8168;49.036;7.690;2024-03-29T11:11:31;10.10;99.90
16128;DHT22;8168;49.036;7.690;2024-03-29T11:14:11;10.20;99.90
16128;DHT22;8168;49.036;7.690;2024-03-29T11:16:44;10.20;99.90
16128;DHT22;8168;49.036;7.690;2024-03-29T11:19:15;10.30;99.90
16128;DHT22;8168;49.036;7.690;2024-03-29T11:21:46;10.30;99.90
16128;DHT22;8168;49.036;7.690;2024-03-29T11:24:22;10.40;99.90
16128;DHT22;8168;49.036;7.690;2024-03-29T11:26:53;10.40;99.90
16128;DHT22;8168;49.036;7.690;2024-03-29T11:29:24;10.50;99.90
16128;DHT22;8168;49.036;7.690;2024-03-29T11:31:59;10.50;99.90
16128;DHT22;8168;49.036;7.690;2024-03-29T11:34:32;10.60;99.90
16128;DHT22;8168;49.036;7.690;2024-03-29T11:37:09;10.60;99.90
16128;DHT22;8168;49.036;7.690;2024-03-29T11:39:39;10.60;99.90
16128;DHT22;8168;49.036;7.690;2024-03-29T11:42:11;10.70;99.90
16128;DHT22;8168;49.036;7.690;2024-03-29T11:44:42;10.70;99.90
16128;DHT22;8168;49.036;7.690;2024-03-29T11:47:13;10.80;99.90
16128;DHT22;8168;49.036;7.690;2024-03-29T11:49:44;10.80;99.90
16128;DHT22;8168;49.036;7.690;2024-03-29T11:52:18;10.80;99.90
16128;DHT22;8168;49.036;7.690;2024-03-29T11:54:48;10.90;99.90
16128;DHT22;8168;49.036;7.690;2024-03-29T11:57:19;10.90;99.90
16128;DHT22;8168;49.036;7.690;2024-03-29T11:59:49;10.90;99.90
16128;DHT22;8168;49.036;7.690;2024-03-29T12:02:20;11.00;99.90
16128;DHT22;8168;49.036;7.690;2024-03-29T12:04:51;11.00;99.90
16128;DHT22;8168;49.036;7.690;2024-03-29T12:07:21;11.00;99.90
16128;DHT22;8168;49.036;7.690;2024-03-29T12:09:52;11.40;99.90
16128;DHT22;8168;49.036;7.690;2024-03-29T12:12:23;11.00;99.90
16128;DHT22;8168;49.036;7.690;2024-03-29T12:14:53;11.00;99.90
16128;DHT22;8168;49.036;7.690;2024-03-29T12:17:24;11.00;99.90
16128;DHT22;8168;49.036;7.690;2024-03-29T12:19:58;11.00;99.90
16128;DHT22;8168;49.036;7.690;2024-03-29T12:22:34;10.90;99.90
16128;DHT22;8168;49.036;7.690;2024-03-29T12:25:05;11.00;99.90
16128;DHT22;8168;49.036;7.690;2024-03-29T12:27:36;11.00;99.90
16128;DHT22;8168;49.036;7.690;2024-03-29T12:30:07;11.00;99.90
16128;DHT22;8168;49.036;7.690;2024-03-29T12:32:38;11.00;99.90
16128;DHT22;8168;49.036;7.690;2024-03-29T12:37:50;10.90;99.90
16128;DHT22;8168;49.036;7.690;2024-03-29T12:40:20;10.90;99.90
16128;DHT22;8168;49.036;7.690;2024-03-29T12:42:53;10.90;99.90
16128;DHT22;8168;49.036;7.690;2024-03-29T12:45:24;10.90;99.90
16128;DHT22;8168;49.036;7.690;2024-03-29T12:47:56;10.90;99.90
16128;DHT22;8168;49.036;7.690;2024-03-29T12:50:33;10.90;99.90
16128;DHT22;8168;49.036;7.690;2024-03-29T12:53:07;10.90;99.90
16128;DHT22;8168;49.036;7.690;2024-03-29T12:55:40;11.00;99.90
16128;DHT22;8168;49.036;7.690;2024-03-29T12:58:13;11.00;99.90
16128;DHT22;8168;49.036;7.690;2024-03-29T13:00:44;11.00;99.90
16128;DHT22;8168;49.036;7.690;2024-03-29T13:03:16;11.00;99.90
16128;DHT22;8168;49.036;7.690;2024-03-29T13:05:46;11.00;99.90
16128;DHT22;8168;49.036;7.690;2024-03-29T13:08:17;11.00;99.90
16128;DHT22;8168;49.036;7.690;2024-03-29T13:10:48;11.00;99.90
16128;DHT22;8168;49.036;7.690;2024-03-29T13:13:18;11.00;99.90
16128;DHT22;8168;49.036;7.690;2024-03-29T13:15:49;11.00;99.90
16128;DHT22;8168;49.036;7.690;2024-03-29T13:18:21;10.90;99.90
16128;DHT22;8168;49.036;7.690;2024-03-29T13:20:52;11.00;99.90
16128;DHT22;8168;49.036;7.690;2024-03-29T13:23:22;10.90;99.90
16128;DHT22;8168;49.036;7.690;2024-03-29T13:25:53;10.90;99.90
16128;DHT22;8168;49.036;7.690;2024-03-29T13:28:26;11.00;99.90
16128;DHT22;8168;49.036;7.690;2024-03-29T13:30:57;11.00;99.90
16128;DHT22;8168;49.036;7.690;2024-03-29T13:33:27;11.00;99.90
16128;DHT22;8168;49.036;7.690;2024-03-29T13:35:58;11.00;99.90
16128;DHT22;8168;49.036;7.690;2024-03-29T13:38:29;11.00;99.90
16128;DHT22;8168;49.036;7.690;2024-03-29T13:41:00;10.90;99.90
16128;DHT22;8168;49.036;7.690;2024-03-29T13:43:30;10.90;99.90
16128;DHT22;8168;49.036;7.690;2024-03-29T13:46:03;10.90;99.90
16128;DHT22;8168;49.036;7.690;2024-03-29T13:48:34;11.00;99.90
16128;DHT22;8168;49.036;7.690;2024-03-29T13:51:06;10.90;99.90
16128;DHT22;8168;49.036;7.690;2024-03-29T13:53:37;11.00;99.90
16128;DHT22;8168;49.036;7.690;2024-03-29T13:56:08;11.00;99.90
16128;DHT22;8168;49.036;7.690;2024-03-29T13:58:38;11.00;99.90
16128;DHT22;8168;49.036;7.690;2024-03-29T14:01:09;11.10;99.90
16128;DHT22;8168;49.036;7.690;2024-03-29T14:03:40;11.20;99.90
16128;DHT22;8168;49.036;7.690;2024-03-29T14:06:10;11.20;99.90
16128;DHT22;8168;49.036;7.690;2024-03-29T14:08:41;11.30;99.90
16128;DHT22;8168;49.036;7.690;2024-03-29T14:11:12;11.30;99.90
16128;DHT22;8168;49.036;7.690;2024-03-29T14:13:44;11.30;99.90
16128;DHT22;8168;49.036;7.690;2024-03-29T14:16:19;11.30;99.90
16128;DHT22;8168;49.036;7.690;2024-03-29T14:18:50;11.40;99.90
16128;DHT22;8168;49.036;7.690;2024-03-29T14:21:20;11.40;99.90
16128;DHT22;8168;49.036;7.690;2024-03-29T14:23:51;11.40;99.90
16128;DHT22;8168;49.036;7.690;2024-03-29T14:26:22;11.40;99.90
16128;DHT22;8168;49.036;7.690;2024-03-29T14:28:53;11.40;99.90
16128;DHT22;8168;49.036;7.690;2024-03-29T14:31:23;11.40;99.90
16128;DHT22;8168;49.036;7.690;2024-03-29T14:33:54;11.50;99.90
16128;DHT22;8168;49.036;7.690;2024-03-29T14:36:25;11.50;99.90
16128;DHT22;8168;49.036;7.690;2024-03-29T14:38:56;11.50;99.90
16128;DHT22;8168;49.036;7.690;2024-03-29T14:41:28;11.50;99.90
16128;DHT22;8168;49.036;7.690;2024-03-29T14:43:59;11.50;99.90
16128;DHT22;8168;49.036;7.690;2024-03-29T14:46:29;11.50;99.90
16128;DHT22;8168;49.036;7.690;2024-03-29T14:49:00;11.60;99.90
16128;DHT22;8168;49.036;7.690;2024-03-29T14:51:34;11.60;99.90
16128;DHT22;8168;49.036;7.690;2024-03-29T14:54:05;11.60;99.90
16128;DHT22;8168;49.036;7.690;2024-03-29T14:56:35;11.70;99.90
16128;DHT22;8168;49.036;7.690;2024-03-29T14:59:06;11.70;99.90
16128;DHT22;8168;49.036;7.690;2024-03-29T15:01:41;11.80;99.90
16128;DHT22;8168;49.036;7.690;2024-03-29T15:04:13;11.90;99.90
16128;DHT22;8168;49.036;7.690;2024-03-29T15:06:43;11.90;99.90
16128;DHT22;8168;49.036;7.690;2024-03-29T15:09:16;12.00;99.90
16128;DHT22;8168;49.036;7.690;2024-03-29T15:11:46;12.10;99.90
16128;DHT22;8168;49.036;7.690;2024-03-29T15:14:18;12.10;99.90
16128;DHT22;8168;49.036;7.690;2024-03-29T15:16:49;12.20;99.90
16128;DHT22;8168;49.036;7.690;2024-03-29T15:19:19;12.20;99.90
16128;DHT22;8168;49.036;7.690;2024-03-29T15:21:50;12.20;99.90
16128;DHT22;8168;49.036;7.690;2024-03-29T15:24:21;12.10;99.90
16128;DHT22;8168;49.036;7.690;2024-03-29T15:26:51;12.10;99.90
16128;DHT22;8168;49.036;7.690;2024-03-29T15:29:28;12.10;99.90
16128;DHT22;8168;49.036;7.690;2024-03-29T15:31:59;12.10;99.90
16128;DHT22;8168;49.036;7.690;2024-03-29T15:34:29;12.20;99.90
16128;DHT22;8168;49.036;7.690;2024-03-29T15:37:00;12.20;99.90
16128;DHT22;8168;49.036;7.690;2024-03-29T15:39:30;12.30;99.90
16128;DHT22;8168;49.036;7.690;2024-03-29T15:42:01;12.40;99.90
16128;DHT22;8168;49.036;7.690;2024-03-29T15:44:32;12.50;99.90
16128;DHT22;8168;49.036;7.690;2024-03-29T15:47:02;12.50;99.90
16128;DHT22;8168;49.036;7.690;2024-03-29T15:49:33;12.60;99.90
16128;DHT22;8168;49.036;7.690;2024-03-29T15:52:06;12.60;99.90
16128;DHT22;8168;49.036;7.690;2024-03-29T15:54:38;12.60;99.90
16128;DHT22;8168;49.036;7.690;2024-03-29T15:57:09;12.70;99.90
16128;DHT22;8168;49.036;7.690;2024-03-29T15:59:40;12.70;99.90
16128;DHT22;8168;49.036;7.690;2024-03-29T16:02:11;12.80;99.90
16128;DHT22;8168;49.036;7.690;2024-03-29T16:04:41;12.80;99.90
16128;DHT22;8168;49.036;7.690;2024-03-29T16:07:12;12.80;99.90
16128;DHT22;8168;49.036;7.690;2024-03-29T16:09:43;12.80;99.90
16128;DHT22;8168;49.036;7.690;2024-03-29T16:12:13;12.90;99.90
16128;DHT22;8168;49.036;7.690;2024-03-29T16:14:44;12.90;99.90
16128;DHT22;8168;49.036;7.690;2024-03-29T16:17:14;12.90;99.90
16128;DHT22;8168;49.036;7.690;2024-03-29T16:19:45;12.90;99.90
16128;DHT22;8168;49.036;7.690;2024-03-29T16:22:18;12.90;99.90
16128;DHT22;8168;49.036;7.690;2024-03-29T16:24:49;12.90;99.90
16128;DHT22;8168;49.036;7.690;2024-03-29T16:27:19;12.90;99.90